sensor_id;sensor_type;location;lat;lon;timestamp;pressure;altitude;pressure_sealevel;temperature;humidity
46291;BME280;32023;44.444;26.006;2022-11-06T00:01:53;100328.19;;;15.45;82.66
46291;BME280;32023;44.444;26.006;2022-11-06T00:12:06;100330.97;;;15.45;82.44
46291;BME280;32023;44.444;26.006;2022-11-06T00:15:04;100325.44;;;15.45;82.59
46291;BME280;32023;44.444;26.006;2022-11-06T00:18:00;100311.28;;;15.41;82.43
46291;BME280;32023;44.444;26.006;2022-11-06T00:20:31;100325.44;;;15.45;82.75
46291;BME280;32023;44.444;26.006;2022-11-06T00:23:21;100325.97;;;15.41;82.61
46291;BME280;32023;44.444;26.006;2022-11-06T00:26:23;100311.00;;;15.42;82.91
46291;BME280;32023;44.444;26.006;2022-11-06T00:32:23;100313.81;;;15.37;83.07
46291;BME280;32023;44.444;26.006;2022-11-06T00:35:11;100300.25;;;15.36;83.29
46291;BME280;32023;44.444;26.006;2022-11-06T00:37:50;100303.84;;;15.36;83.21
46291;BME280;32023;44.444;26.006;2022-11-06T00:40:43;100308.84;;;15.34;83.15
46291;BME280;32023;44.444;26.006;2022-11-06T00:46:28;100299.41;;;15.35;83.13
46291;BME280;32023;44.444;26.006;2022-11-06T00:49:14;100303.31;;;15.34;83.15
46291;BME280;32023;44.444;26.006;2022-11-06T00:51:56;100305.81;;;15.36;83.48
46291;BME280;32023;44.444;26.006;2022-11-06T00:54:29;100302.72;;;15.37;83.64
46291;BME280;32023;44.444;26.006;2022-11-06T00:57:38;100299.66;;;15.39;83.42
46291;BME280;32023;44.444;26.006;2022-11-06T01:00:29;100308.25;;;15.37;83.29
46291;BME280;32023;44.444;26.006;2022-11-06T01:02:56;100296.00;;;15.43;83.40
46291;BME280;32023;44.444;26.006;2022-11-06T01:06:18;100312.69;;;15.38;83.21
46291;BME280;32023;44.444;26.006;2022-11-06T01:09:16;100291.06;;;15.40;83.80
46291;BME280;32023;44.444;26.006;2022-11-06T01:11:58;100309.34;;;15.41;83.41
46291;BME280;32023;44.444;26.006;2022-11-06T01:21:16;100314.31;;;15.45;83.48
46291;BME280;32023;44.444;26.006;2022-11-06T01:34:09;100313.25;;;15.40;83.10
46291;BME280;32023;44.444;26.006;2022-11-06T01:47:37;100321.25;;;15.42;83.25
46291;BME280;32023;44.444;26.006;2022-11-06T01:50:38;100314.38;;;15.39;83.10
46291;BME280;32023;44.444;26.006;2022-11-06T01:53:30;100310.50;;;15.35;83.27
46291;BME280;32023;44.444;26.006;2022-11-06T01:56:44;100314.66;;;15.38;83.23
46291;BME280;32023;44.444;26.006;2022-11-06T01:59:39;100318.00;;;15.35;83.15
46291;BME280;32023;44.444;26.006;2022-11-06T02:03:08;100309.69;;;15.35;82.74
46291;BME280;32023;44.444;26.006;2022-11-06T02:05:48;100305.84;;;15.31;82.87
46291;BME280;32023;44.444;26.006;2022-11-06T02:38:27;100350.28;;;15.26;82.76
46291;BME280;32023;44.444;26.006;2022-11-06T02:41:09;100345.56;;;15.26;82.77
46291;BME280;32023;44.444;26.006;2022-11-06T02:43:54;100358.06;;;15.24;82.77
46291;BME280;32023;44.444;26.006;2022-11-06T02:50:23;100356.72;;;15.21;83.04
46291;BME280;32023;44.444;26.006;2022-11-06T02:56:50;100355.91;;;15.16;83.45
46291;BME280;32023;44.444;26.006;2022-11-06T02:59:38;100368.38;;;15.18;83.68
46291;BME280;32023;44.444;26.006;2022-11-06T03:02:41;100349.78;;;15.19;83.48
46291;BME280;32023;44.444;26.006;2022-11-06T03:08:26;100366.16;;;15.20;83.35
46291;BME280;32023;44.444;26.006;2022-11-06T03:11:29;100370.03;;;15.19;83.59
46291;BME280;32023;44.444;26.006;2022-11-06T03:14:31;100363.38;;;15.20;83.47
46291;BME280;32023;44.444;26.006;2022-11-06T03:19:51;100372.81;;;15.19;83.69
46291;BME280;32023;44.444;26.006;2022-11-06T03:23:02;100358.66;;;15.21;83.47
46291;BME280;32023;44.444;26.006;2022-11-06T03:26:14;100374.75;;;15.19;83.85
46291;BME280;32023;44.444;26.006;2022-11-06T03:29:11;100374.75;;;15.19;83.76
46291;BME280;32023;44.444;26.006;2022-11-06T03:31:57;100371.97;;;15.19;83.76
46291;BME280;32023;44.444;26.006;2022-11-06T03:35:06;100358.16;;;15.14;83.75
46291;BME280;32023;44.444;26.006;2022-11-06T03:40:58;100371.72;;;15.15;83.89
46291;BME280;32023;44.444;26.006;2022-11-06T03:43:33;100371.13;;;15.18;83.65
46291;BME280;32023;44.444;26.006;2022-11-06T03:46:06;100380.00;;;15.20;83.57
46291;BME280;32023;44.444;26.006;2022-11-06T03:48:54;100369.75;;;15.21;83.13
46291;BME280;32023;44.444;26.006;2022-11-06T03:54:43;100380.59;;;15.17;83.26
46291;BME280;32023;44.444;26.006;2022-11-06T04:01:26;100373.97;;;15.13;83.61
46291;BME280;32023;44.444;26.006;2022-11-06T04:04:36;100376.19;;;15.11;83.50
46291;BME280;32023;44.444;26.006;2022-11-06T04:07:22;100377.34;;;15.10;83.61
46291;BME280;32023;44.444;26.006;2022-11-06T04:10:02;100363.72;;;15.14;83.48
46291;BME280;32023;44.444;26.006;2022-11-06T04:13:07;100364.03;;;15.07;83.39
46291;BME280;32023;44.444;26.006;2022-11-06T04:16:05;100367.09;;;15.06;83.50
46291;BME280;32023;44.444;26.006;2022-11-06T04:28:33;100375.69;;;15.04;83.83
46291;BME280;32023;44.444;26.006;2022-11-06T04:31:32;100374.03;;;15.03;83.64
46291;BME280;32023;44.444;26.006;2022-11-06T04:40:54;100375.47;;;14.95;84.13
46291;BME280;32023;44.444;26.006;2022-11-06T04:46:54;100385.22;;;14.93;84.01
46291;BME280;32023;44.444;26.006;2022-11-06T04:49:43;100374.44;;;14.91;84.54
46291;BME280;32023;44.444;26.006;2022-11-06T04:52:50;100392.44;;;14.89;84.42
46291;BME280;32023;44.444;26.006;2022-11-06T04:55:29;100395.78;;;14.91;84.84
46291;BME280;32023;44.444;26.006;2022-11-06T04:58:00;100390.22;;;14.91;84.63
46291;BME280;32023;44.444;26.006;2022-11-06T05:00:55;100396.31;;;14.88;84.68
46291;BME280;32023;44.444;26.006;2022-11-06T05:34:39;100431.66;;;15.11;83.87
46291;BME280;32023;44.444;26.006;2022-11-06T05:38:04;100446.38;;;15.12;83.39
46291;BME280;32023;44.444;26.006;2022-11-06T06:01:04;100454.91;;;15.20;82.58
46291;BME280;32023;44.444;26.006;2022-11-06T06:07:49;100481.81;;;15.20;82.30
46291;BME280;32023;44.444;26.006;2022-11-06T06:10:18;100473.22;;;15.21;82.28
46291;BME280;32023;44.444;26.006;2022-11-06T06:12:49;100492.66;;;15.21;82.46
46291;BME280;32023;44.444;26.006;2022-11-06T06:18:28;100498.72;;;15.23;81.96
46291;BME280;32023;44.444;26.006;2022-11-06T06:21:06;100501.47;;;15.28;81.97
46291;BME280;32023;44.444;26.006;2022-11-06T06:23:39;100506.16;;;15.33;81.86
46291;BME280;32023;44.444;26.006;2022-11-06T06:26:19;100502.25;;;15.34;81.25
46291;BME280;32023;44.444;26.006;2022-11-06T06:28:58;100503.41;;;15.33;81.27
46291;BME280;32023;44.444;26.006;2022-11-06T06:34:48;100516.69;;;15.36;81.06
46291;BME280;32023;44.444;26.006;2022-11-06T06:37:30;100514.19;;;15.34;81.14
46291;BME280;32023;44.444;26.006;2022-11-06T06:40:08;100521.16;;;15.32;81.16
46291;BME280;32023;44.444;26.006;2022-11-06T06:45:27;100498.75;;;15.18;80.77
46291;BME280;32023;44.444;26.006;2022-11-06T06:48:09;100534.63;;;15.49;80.60
46291;BME280;32023;44.444;26.006;2022-11-06T06:50:45;100539.63;;;15.47;80.18
46291;BME280;32023;44.444;26.006;2022-11-06T06:53:29;100535.22;;;15.51;80.31
46291;BME280;32023;44.444;26.006;2022-11-06T06:56:08;100527.41;;;15.53;79.82
46291;BME280;32023;44.444;26.006;2022-11-06T06:58:42;100537.72;;;15.52;79.80
46291;BME280;32023;44.444;26.006;2022-11-06T07:01:50;100535.47;;;15.54;79.69
46291;BME280;32023;44.444;26.006;2022-11-06T07:04:39;100535.97;;;15.61;79.41
46291;BME280;32023;44.444;26.006;2022-11-06T07:07:18;100532.91;;;15.63;79.06
46291;BME280;32023;44.444;26.006;2022-11-06T07:13:30;100541.25;;;15.58;79.15
46291;BME280;32023;44.444;26.006;2022-11-06T07:16:16;100539.56;;;15.62;79.10
46291;BME280;32023;44.444;26.006;2022-11-06T07:18:43;100543.19;;;15.62;78.99
46291;BME280;32023;44.444;26.006;2022-11-06T07:21:20;100548.41;;;15.69;79.09
46291;BME280;32023;44.444;26.006;2022-11-06T07:24:02;100540.63;;;15.71;78.66
46291;BME280;32023;44.444;26.006;2022-11-06T07:26:43;100545.03;;;15.72;78.40
46291;BME280;32023;44.444;26.006;2022-11-06T07:29:12;100543.34;;;15.76;78.59
46291;BME280;32023;44.444;26.006;2022-11-06T07:31:44;100542.19;;;15.82;78.07
46291;BME280;32023;44.444;26.006;2022-11-06T07:34:17;100533.22;;;15.90;77.74
46291;BME280;32023;44.444;26.006;2022-11-06T07:37:36;100542.69;;;15.89;77.25
46291;BME280;32023;44.444;26.006;2022-11-06T07:46:48;100540.69;;;15.95;76.81
46291;BME280;32023;44.444;26.006;2022-11-06T07:49:41;100535.97;;;15.95;76.59
46291;BME280;32023;44.444;26.006;2022-11-06T07:52:25;100543.81;;;15.88;77.08
46291;BME280;32023;44.444;26.006;2022-11-06T07:55:04;100551.28;;;15.93;76.91
46291;BME280;32023;44.444;26.006;2022-11-06T07:57:38;100550.44;;;15.92;76.91
46291;BME280;32023;44.444;26.006;2022-11-06T08:00:18;100562.97;;;15.89;76.88
46291;BME280;32023;44.444;26.006;2022-11-06T08:02:51;100558.66;;;16.02;76.80
46291;BME280;32023;44.444;26.006;2022-11-06T08:05:48;100546.00;;;15.91;76.24
46291;BME280;32023;44.444;26.006;2022-11-06T08:08:30;100572.75;;;16.16;75.59
46291;BME280;32023;44.444;26.006;2022-11-06T08:11:17;100561.38;;;16.12;75.52
46291;BME280;32023;44.444;26.006;2022-11-06T08:14:01;100569.38;;;16.19;75.35
46291;BME280;32023;44.444;26.006;2022-11-06T08:17:13;100567.69;;;16.18;74.52
46291;BME280;32023;44.444;26.006;2022-11-06T08:19:59;100567.94;;;16.21;75.07
46291;BME280;32023;44.444;26.006;2022-11-06T08:22:30;100571.81;;;16.25;74.83
46291;BME280;32023;44.444;26.006;2022-11-06T08:25:24;100559.78;;;16.35;74.23
46291;BME280;32023;44.444;26.006;2022-11-06T08:28:10;100566.09;;;16.41;73.85
46291;BME280;32023;44.444;26.006;2022-11-06T08:31:08;100571.38;;;16.42;73.50
46291;BME280;32023;44.444;26.006;2022-11-06T08:33:54;100581.66;;;16.42;73.72
46291;BME280;32023;44.444;26.006;2022-11-06T08:36:28;100584.69;;;16.45;73.75
46291;BME280;32023;44.444;26.006;2022-11-06T08:42:22;100586.25;;;16.56;73.45
46291;BME280;32023;44.444;26.006;2022-11-06T08:44:53;100583.44;;;16.61;73.01
46291;BME280;32023;44.444;26.006;2022-11-06T08:47:23;100574.28;;;16.56;72.36
46291;BME280;32023;44.444;26.006;2022-11-06T08:49:52;100591.56;;;16.53;72.56
46291;BME280;32023;44.444;26.006;2022-11-06T08:52:29;100591.56;;;16.53;72.64
46291;BME280;32023;44.444;26.006;2022-11-06T08:55:06;100590.34;;;16.64;72.62
46291;BME280;32023;44.444;26.006;2022-11-06T08:57:43;100592.56;;;16.62;71.98
46291;BME280;32023;44.444;26.006;2022-11-06T09:00:14;100593.66;;;16.66;72.04
46291;BME280;32023;44.444;26.006;2022-11-06T09:02:46;100585.81;;;16.73;71.72
46291;BME280;32023;44.444;26.006;2022-11-06T09:05:19;100596.09;;;16.72;71.62
46291;BME280;32023;44.444;26.006;2022-11-06T09:10:55;100599.16;;;16.71;72.13
46291;BME280;32023;44.444;26.006;2022-11-06T09:13:27;100586.84;;;16.77;71.86
46291;BME280;32023;44.444;26.006;2022-11-06T09:16:28;100592.09;;;16.83;71.13
46291;BME280;32023;44.444;26.006;2022-11-06T09:19:02;100591.78;;;16.85;71.18
46291;BME280;32023;44.444;26.006;2022-11-06T09:21:58;100593.44;;;16.86;71.05
46291;BME280;32023;44.444;26.006;2022-11-06T09:25:03;100597.81;;;16.92;71.10
46291;BME280;32023;44.444;26.006;2022-11-06T09:27:41;100588.22;;;17.03;70.63
46291;BME280;32023;44.444;26.006;2022-11-06T09:30:34;100602.03;;;17.13;70.61
46291;BME280;32023;44.444;26.006;2022-11-06T09:33:04;100605.78;;;17.22;70.10
46291;BME280;32023;44.444;26.006;2022-11-06T09:35:45;100594.59;;;17.27;69.22
46291;BME280;32023;44.444;26.006;2022-11-06T09:38:16;100593.69;;;17.32;69.01
46291;BME280;32023;44.444;26.006;2022-11-06T09:40:57;100583.03;;;17.39;68.68
46291;BME280;32023;44.444;26.006;2022-11-06T09:46:39;100591.41;;;17.58;67.78
46291;BME280;32023;44.444;26.006;2022-11-06T09:55:44;100580.31;;;17.90;66.38
46291;BME280;32023;44.444;26.006;2022-11-06T09:58:31;100580.19;;;18.00;66.32
46291;BME280;32023;44.444;26.006;2022-11-06T10:01:27;100579.34;;;18.00;65.99
46291;BME280;32023;44.444;26.006;2022-11-06T10:04:06;100584.63;;;18.01;65.83
46291;BME280;32023;44.444;26.006;2022-11-06T10:06:43;100577.47;;;17.95;66.04
46291;BME280;32023;44.444;26.006;2022-11-06T10:09:10;100579.59;;;17.85;66.34
46291;BME280;32023;44.444;26.006;2022-11-06T10:15:27;100589.53;;;17.72;66.75
46291;BME280;32023;44.444;26.006;2022-11-06T10:20:57;100584.47;;;17.93;66.03
46291;BME280;32023;44.444;26.006;2022-11-06T10:27:22;100573.72;;;18.18;65.28
46291;BME280;32023;44.444;26.006;2022-11-06T10:35:41;100566.22;;;18.92;62.50
46291;BME280;32023;44.444;26.006;2022-11-06T10:38:13;100567.56;;;19.08;62.07
46291;BME280;32023;44.444;26.006;2022-11-06T10:40:43;100579.91;;;19.57;60.69
46291;BME280;32023;44.444;26.006;2022-11-06T10:46:36;100566.38;;;20.53;57.23
46291;BME280;32023;44.444;26.006;2022-11-06T10:51:58;100568.09;;;20.71;56.06
46291;BME280;32023;44.444;26.006;2022-11-06T10:58:17;100546.25;;;20.51;56.43
46291;BME280;32023;44.444;26.006;2022-11-06T11:01:35;100544.88;;;20.40;56.59
46291;BME280;32023;44.444;26.006;2022-11-06T11:04:36;100548.88;;;20.47;56.57
46291;BME280;32023;44.444;26.006;2022-11-06T11:07:13;100539.97;;;20.76;55.48
46291;BME280;32023;44.444;26.006;2022-11-06T11:09:40;100537.66;;;20.78;55.83
46291;BME280;32023;44.444;26.006;2022-11-06T11:17:36;100531.47;;;20.98;55.09
46291;BME280;32023;44.444;26.006;2022-11-06T11:20:13;100528.28;;;21.39;54.06
46291;BME280;32023;44.444;26.006;2022-11-06T11:23:32;100522.88;;;21.77;52.27
46291;BME280;32023;44.444;26.006;2022-11-06T11:26:42;100525.84;;;21.89;51.80
46291;BME280;32023;44.444;26.006;2022-11-06T11:29:52;100522.22;;;22.61;49.86
46291;BME280;32023;44.444;26.006;2022-11-06T11:35:47;100506.56;;;23.48;46.82
46291;BME280;32023;44.444;26.006;2022-11-06T11:38:43;100514.50;;;23.46;47.04
46291;BME280;32023;44.444;26.006;2022-11-06T11:48:19;100513.75;;;24.44;44.33
46291;BME280;32023;44.444;26.006;2022-11-06T11:57:17;100509.03;;;21.55;50.55
46291;BME280;32023;44.444;26.006;2022-11-06T12:00:13;100519.72;;;21.36;51.48
46291;BME280;32023;44.444;26.006;2022-11-06T12:03:15;100511.97;;;21.24;51.58
46291;BME280;32023;44.444;26.006;2022-11-06T12:06:15;100517.06;;;21.13;51.68
46291;BME280;32023;44.444;26.006;2022-11-06T12:08:56;100507.03;;;20.73;52.37
46291;BME280;32023;44.444;26.006;2022-11-06T12:11:30;100527.38;;;20.56;53.28
46291;BME280;32023;44.444;26.006;2022-11-06T12:17:27;100511.78;;;20.11;54.01
46291;BME280;32023;44.444;26.006;2022-11-06T12:20:20;100517.50;;;20.06;54.10
46291;BME280;32023;44.444;26.006;2022-11-06T12:23:11;100499.31;;;19.86;54.28
46291;BME280;32023;44.444;26.006;2022-11-06T12:26:30;100522.78;;;19.63;54.69
46291;BME280;32023;44.444;26.006;2022-11-06T12:29:17;100510.44;;;19.42;55.22
46291;BME280;32023;44.444;26.006;2022-11-06T12:39:22;100519.47;;;19.11;56.13
46291;BME280;32023;44.444;26.006;2022-11-06T12:42:08;100511.84;;;19.03;56.64
46291;BME280;32023;44.444;26.006;2022-11-06T12:45:12;100522.09;;;18.94;57.06
46291;BME280;32023;44.444;26.006;2022-11-06T13:03:58;100530.78;;;18.79;57.75
46291;BME280;32023;44.444;26.006;2022-11-06T13:10:15;100539.25;;;18.88;57.66
46291;BME280;32023;44.444;26.006;2022-11-06T13:23:28;100527.72;;;18.48;58.88
46291;BME280;32023;44.444;26.006;2022-11-06T13:26:22;100533.97;;;18.59;58.56
46291;BME280;32023;44.444;26.006;2022-11-06T13:28:59;100536.88;;;18.54;58.80
46291;BME280;32023;44.444;26.006;2022-11-06T13:31:40;100523.44;;;18.56;58.57
46291;BME280;32023;44.444;26.006;2022-11-06T13:34:20;100531.72;;;18.61;58.30
46291;BME280;32023;44.444;26.006;2022-11-06T13:36:49;100539.53;;;18.59;58.33
46291;BME280;32023;44.444;26.006;2022-11-06T13:39:32;100540.59;;;18.63;58.10
46291;BME280;32023;44.444;26.006;2022-11-06T13:42:28;100554.66;;;18.58;58.32
46291;BME280;32023;44.444;26.006;2022-11-06T13:44:55;100549.66;;;18.55;58.46
46291;BME280;32023;44.444;26.006;2022-11-06T13:50:43;100556.81;;;18.28;59.42
46291;BME280;32023;44.444;26.006;2022-11-06T13:59:49;100558.38;;;18.02;60.58
46291;BME280;32023;44.444;26.006;2022-11-06T14:06:14;100582.75;;;17.97;61.38
46291;BME280;32023;44.444;26.006;2022-11-06T14:09:19;100574.84;;;17.85;61.80
46291;BME280;32023;44.444;26.006;2022-11-06T14:12:05;100583.88;;;17.77;62.15
46291;BME280;32023;44.444;26.006;2022-11-06T14:15:12;100589.53;;;17.72;62.40
46291;BME280;32023;44.444;26.006;2022-11-06T14:18:01;100576.81;;;17.66;62.64
46291;BME280;32023;44.444;26.006;2022-11-06T14:20:37;100587.97;;;17.66;62.97
46291;BME280;32023;44.444;26.006;2022-11-06T14:32:47;100592.25;;;17.34;64.05
46291;BME280;32023;44.444;26.006;2022-11-06T14:44:46;100598.78;;;17.06;65.58
46291;BME280;32023;44.444;26.006;2022-11-06T14:52:59;100597.53;;;16.94;66.16
46291;BME280;32023;44.444;26.006;2022-11-06T14:56:05;100598.13;;;16.91;66.35
46291;BME280;32023;44.444;26.006;2022-11-06T14:58:40;100592.56;;;16.91;66.57
46291;BME280;32023;44.444;26.006;2022-11-06T15:01:28;100603.69;;;16.91;66.57
46291;BME280;32023;44.444;26.006;2022-11-06T15:03:57;100609.00;;;16.87;66.66
46291;BME280;32023;44.444;26.006;2022-11-06T15:06:46;100608.22;;;16.81;66.86
46291;BME280;32023;44.444;26.006;2022-11-06T15:16:09;100602.53;;;16.68;67.33
46291;BME280;32023;44.444;26.006;2022-11-06T15:18:45;100601.72;;;16.67;67.46
46291;BME280;32023;44.444;26.006;2022-11-06T15:21:32;100596.78;;;16.59;67.56
46291;BME280;32023;44.444;26.006;2022-11-06T15:24:27;100619.63;;;16.56;67.94
46291;BME280;32023;44.444;26.006;2022-11-06T15:26:57;100609.66;;;16.50;68.17
46291;BME280;32023;44.444;26.006;2022-11-06T15:29:33;100621.66;;;16.46;68.19
46291;BME280;32023;44.444;26.006;2022-11-06T15:34:54;100632.81;;;16.41;68.62
46291;BME280;32023;44.444;26.006;2022-11-06T15:37:29;100624.22;;;16.37;68.46
46291;BME280;32023;44.444;26.006;2022-11-06T15:39:58;100630.38;;;16.34;68.86
46291;BME280;32023;44.444;26.006;2022-11-06T15:42:36;100618.44;;;16.28;68.68
46291;BME280;32023;44.444;26.006;2022-11-06T15:47:56;100624.63;;;16.20;69.45
46291;BME280;32023;44.444;26.006;2022-11-06T15:50:27;100645.50;;;16.18;69.38
46291;BME280;32023;44.444;26.006;2022-11-06T15:59:09;100656.38;;;16.14;69.40
46291;BME280;32023;44.444;26.006;2022-11-06T16:01:35;100661.69;;;16.11;69.53
46291;BME280;32023;44.444;26.006;2022-11-06T16:04:23;100659.75;;;16.06;69.93
46291;BME280;32023;44.444;26.006;2022-11-06T16:06:54;100654.75;;;16.08;69.94
46291;BME280;32023;44.444;26.006;2022-11-06T16:09:25;100659.22;;;16.04;69.94
46291;BME280;32023;44.444;26.006;2022-11-06T16:12:04;100645.81;;;15.77;69.94
46291;BME280;32023;44.444;26.006;2022-11-06T16:14:51;100671.72;;;16.02;70.16
46291;BME280;32023;44.444;26.006;2022-11-06T16:20:46;100684.53;;;15.98;70.31
46291;BME280;32023;44.444;26.006;2022-11-06T16:23:16;100683.72;;;15.97;70.13
46291;BME280;32023;44.444;26.006;2022-11-06T16:25:44;100694.84;;;15.97;69.88
46291;BME280;32023;44.444;26.006;2022-11-06T16:28:47;100700.94;;;15.94;70.15
46291;BME280;32023;44.444;26.006;2022-11-06T16:31:28;100698.72;;;15.96;70.25
46291;BME280;32023;44.444;26.006;2022-11-06T16:34:20;100696.22;;;15.95;70.08
46291;BME280;32023;44.444;26.006;2022-11-06T16:37:37;100707.31;;;16.00;69.79
46291;BME280;32023;44.444;26.006;2022-11-06T16:43:28;100705.91;;;16.02;69.93
46291;BME280;32023;44.444;26.006;2022-11-06T16:58:12;100723.16;;;15.99;69.44
46291;BME280;32023;44.444;26.006;2022-11-06T17:01:01;100717.59;;;15.99;69.81
46291;BME280;32023;44.444;26.006;2022-11-06T17:03:38;100727.88;;;15.99;69.83
46291;BME280;32023;44.444;26.006;2022-11-06T17:06:31;100726.78;;;15.95;69.49
46291;BME280;32023;44.444;26.006;2022-11-06T17:09:04;100732.06;;;15.91;69.71
46291;BME280;32023;44.444;26.006;2022-11-06T17:11:54;100742.66;;;15.89;69.84
46291;BME280;32023;44.444;26.006;2022-11-06T17:14:29;100745.44;;;15.89;69.89
46291;BME280;32023;44.444;26.006;2022-11-06T17:17:27;100738.53;;;15.81;69.75
46291;BME280;32023;44.444;26.006;2022-11-06T17:20:17;100742.13;;;15.82;69.81
46291;BME280;32023;44.444;26.006;2022-11-06T17:22:54;100746.03;;;15.81;70.17
46291;BME280;32023;44.444;26.006;2022-11-06T17:25:21;100744.34;;;15.80;70.07
46291;BME280;32023;44.444;26.006;2022-11-06T17:27:51;100753.25;;;15.82;70.25
46291;BME280;32023;44.444;26.006;2022-11-06T17:30:17;100755.78;;;15.78;70.30
46291;BME280;32023;44.444;26.006;2022-11-06T17:32:44;100751.31;;;15.77;70.10
46291;BME280;32023;44.444;26.006;2022-11-06T17:35:10;100753.84;;;15.74;70.20
46291;BME280;32023;44.444;26.006;2022-11-06T17:37:36;100763.00;;;15.74;70.43
46291;BME280;32023;44.444;26.006;2022-11-06T17:40:05;100751.59;;;15.76;70.07
46291;BME280;32023;44.444;26.006;2022-11-06T17:42:32;100765.47;;;15.76;70.33
46291;BME280;32023;44.444;26.006;2022-11-06T17:45:18;100761.34;;;15.73;70.13
46291;BME280;32023;44.444;26.006;2022-11-06T17:47:45;100764.38;;;15.72;70.42
46291;BME280;32023;44.444;26.006;2022-11-06T17:50:24;100771.59;;;15.73;70.64
46291;BME280;32023;44.444;26.006;2022-11-06T17:53:09;100773.28;;;15.74;70.50
46291;BME280;32023;44.444;26.006;2022-11-06T18:01:50;100775.53;;;15.62;71.66
46291;BME280;32023;44.444;26.006;2022-11-06T18:04:24;100790.56;;;15.56;71.84
46291;BME280;32023;44.444;26.006;2022-11-06T18:06:53;100783.03;;;15.56;71.92
46291;BME280;32023;44.444;26.006;2022-11-06T18:09:22;100789.41;;;15.57;71.93
46291;BME280;32023;44.444;26.006;2022-11-06T18:11:54;100793.88;;;15.58;72.08
46291;BME280;32023;44.444;26.006;2022-11-06T18:14:22;100795.81;;;15.57;72.25
46291;BME280;32023;44.444;26.006;2022-11-06T18:16:58;100797.22;;;15.55;71.83
46291;BME280;32023;44.444;26.006;2022-11-06T18:19:25;100791.66;;;15.55;71.81
46291;BME280;32023;44.444;26.006;2022-11-06T18:21:58;100797.22;;;15.55;71.60
46291;BME280;32023;44.444;26.006;2022-11-06T18:24:28;100768.34;;;15.51;71.42
46291;BME280;32023;44.444;26.006;2022-11-06T18:26:54;100798.31;;;15.43;70.82
46291;BME280;32023;44.444;26.006;2022-11-06T18:32:43;100810.00;;;15.35;70.89
46291;BME280;32023;44.444;26.006;2022-11-06T18:35:17;100802.25;;;15.32;70.39
46291;BME280;32023;44.444;26.006;2022-11-06T18:37:55;100797.53;;;15.28;70.19
46291;BME280;32023;44.444;26.006;2022-11-06T18:40:47;100807.78;;;15.27;70.03
46291;BME280;32023;44.444;26.006;2022-11-06T18:43:17;100804.47;;;15.25;70.26
46291;BME280;32023;44.444;26.006;2022-11-06T18:45:55;100800.28;;;15.23;70.08
46291;BME280;32023;44.444;26.006;2022-11-06T18:48:35;100811.69;;;15.21;70.01
46291;BME280;32023;44.444;26.006;2022-11-06T18:51:29;100798.09;;;15.15;70.03
46291;BME280;32023;44.444;26.006;2022-11-06T18:54:16;100815.28;;;15.17;70.23
46291;BME280;32023;44.444;26.006;2022-11-06T18:56:43;100816.69;;;15.09;70.49
46291;BME280;32023;44.444;26.006;2022-11-06T18:59:20;100809.47;;;15.13;70.14
46291;BME280;32023;44.444;26.006;2022-11-06T19:01:57;100813.09;;;15.14;69.97
46291;BME280;32023;44.444;26.006;2022-11-06T19:11:57;100819.16;;;15.11;69.82
46291;BME280;32023;44.444;26.006;2022-11-06T19:14:24;100821.41;;;15.09;69.55
46291;BME280;32023;44.444;26.006;2022-11-06T19:16:53;100819.72;;;15.08;69.53
46291;BME280;32023;44.444;26.006;2022-11-06T19:19:20;100824.44;;;15.07;69.67
46291;BME280;32023;44.444;26.006;2022-11-06T19:24:59;100831.66;;;15.08;69.09
46291;BME280;32023;44.444;26.006;2022-11-06T19:27:25;100836.09;;;15.09;69.38
46291;BME280;32023;44.444;26.006;2022-11-06T19:29:52;100831.09;;;15.11;69.23
46291;BME280;32023;44.444;26.006;2022-11-06T19:32:24;100828.88;;;15.08;69.14
46291;BME280;32023;44.444;26.006;2022-11-06T19:34:50;100841.09;;;15.07;68.98
46291;BME280;32023;44.444;26.006;2022-11-06T19:37:20;100837.22;;;15.08;69.06
46291;BME280;32023;44.444;26.006;2022-11-06T19:39:50;100839.97;;;15.03;69.32
46291;BME280;32023;44.444;26.006;2022-11-06T19:42:20;100838.34;;;15.02;69.05
46291;BME280;32023;44.444;26.006;2022-11-06T19:44:54;100846.09;;;15.00;69.03
46291;BME280;32023;44.444;26.006;2022-11-06T19:47:21;100853.88;;;14.98;69.36
46291;BME280;32023;44.444;26.006;2022-11-06T19:50:28;100854.41;;;14.95;69.34
46291;BME280;32023;44.444;26.006;2022-11-06T19:53:40;100857.19;;;14.95;69.24
46291;BME280;32023;44.444;26.006;2022-11-06T20:20:35;100884.91;;;14.75;70.14
46291;BME280;32023;44.444;26.006;2022-11-06T20:26:23;100880.72;;;14.77;69.71
46291;BME280;32023;44.444;26.006;2022-11-06T20:29:26;100886.56;;;14.76;69.78
46291;BME280;32023;44.444;26.006;2022-11-06T20:32:33;100895.44;;;14.78;69.72
46291;BME280;32023;44.444;26.006;2022-11-06T20:35:02;100886.03;;;14.84;69.92
46291;BME280;32023;44.444;26.006;2022-11-06T20:37:30;100890.16;;;14.81;69.89
46291;BME280;32023;44.444;26.006;2022-11-06T20:40:13;100890.47;;;14.80;69.47
46291;BME280;32023;44.444;26.006;2022-11-06T20:42:45;100897.91;;;14.74;69.55
46291;BME280;32023;44.444;26.006;2022-11-06T20:45:43;100893.75;;;14.72;69.54
46291;BME280;32023;44.444;26.006;2022-11-06T20:48:17;100898.75;;;14.75;69.35
46291;BME280;32023;44.444;26.006;2022-11-06T20:50:54;100898.75;;;14.75;69.55
46291;BME280;32023;44.444;26.006;2022-11-06T20:53:34;100892.38;;;14.74;69.24
46291;BME280;32023;44.444;26.006;2022-11-06T20:56:09;100889.31;;;14.81;68.93